sensor_id;sensor_type;location;lat;lon;timestamp;P1;durP1;ratioP1;P2;durP2;ratioP2
33268;SDS011;19640;50.944;5.260;2022-08-21T00:02:43;3.00;;;2.40;;
33268;SDS011;19640;50.944;5.260;2022-08-21T00:07:25;4.47;;;2.08;;
33268;SDS011;19640;50.944;5.260;2022-08-21T00:09:51;3.28;;;1.80;;
33268;SDS011;19640;50.944;5.260;2022-08-21T00:12:17;2.65;;;2.10;;
33268;SDS011;19640;50.944;5.260;2022-08-21T00:14:43;3.70;;;2.40;;
33268;SDS011;19640;50.944;5.260;2022-08-21T00:17:08;4.38;;;2.75;;
33268;SDS011;19640;50.944;5.260;2022-08-21T00:19:34;2.95;;;2.67;;
33268;SDS011;19640;50.944;5.260;2022-08-21T00:22:00;5.07;;;2.78;;
33268;SDS011;19640;50.944;5.260;2022-08-21T00:24:26;5.20;;;2.20;;
33268;SDS011;19640;50.944;5.260;2022-08-21T00:26:52;5.95;;;1.77;;
33268;SDS011;19640;50.944;5.260;2022-08-21T00:29:18;3.55;;;1.90;;
33268;SDS011;19640;50.944;5.260;2022-08-21T00:31:43;6.07;;;1.70;;
33268;SDS011;19640;50.944;5.260;2022-08-21T00:34:10;4.15;;;2.30;;
33268;SDS011;19640;50.944;5.260;2022-08-21T00:36:36;4.03;;;2.30;;
33268;SDS011;19640;50.944;5.260;2022-08-21T00:39:04;2.53;;;1.90;;
33268;SDS011;19640;50.944;5.260;2022-08-21T00:41:32;1.80;;;1.60;;
33268;SDS011;19640;50.944;5.260;2022-08-21T00:43:59;2.72;;;1.80;;
33268;SDS011;19640;50.944;5.260;2022-08-21T00:46:25;3.72;;;2.20;;
33268;SDS011;19640;50.944;5.260;2022-08-21T00:48:51;3.45;;;1.70;;
33268;SDS011;19640;50.944;5.260;2022-08-21T00:51:19;2.92;;;1.95;;
33268;SDS011;19640;50.944;5.260;2022-08-21T00:53:51;2.80;;;2.13;;
33268;SDS011;19640;50.944;5.260;2022-08-21T00:56:20;2.15;;;1.95;;
33268;SDS011;19640;50.944;5.260;2022-08-21T00:58:47;3.35;;;2.15;;
33268;SDS011;19640;50.944;5.260;2022-08-21T01:01:14;6.50;;;2.58;;
33268;SDS011;19640;50.944;5.260;2022-08-21T01:03:39;3.15;;;2.25;;
33268;SDS011;19640;50.944;5.260;2022-08-21T01:06:06;4.15;;;2.28;;
33268;SDS011;19640;50.944;5.260;2022-08-21T01:08:32;5.65;;;2.10;;
33268;SDS011;19640;50.944;5.260;2022-08-21T01:10:58;3.22;;;2.38;;
33268;SDS011;19640;50.944;5.260;2022-08-21T01:13:25;3.83;;;2.30;;
33268;SDS011;19640;50.944;5.260;2022-08-21T01:15:54;8.43;;;2.47;;
33268;SDS011;19640;50.944;5.260;2022-08-21T01:18:21;5.65;;;3.17;;
33268;SDS011;19640;50.944;5.260;2022-08-21T01:21:01;5.03;;;2.72;;
33268;SDS011;19640;50.944;5.260;2022-08-21T01:23:28;7.95;;;2.40;;
33268;SDS011;19640;50.944;5.260;2022-08-21T01:25:54;5.72;;;2.65;;
33268;SDS011;19640;50.944;5.260;2022-08-21T01:28:20;3.88;;;2.53;;
33268;SDS011;19640;50.944;5.260;2022-08-21T01:30:47;4.15;;;2.13;;
33268;SDS011;19640;50.944;5.260;2022-08-21T01:33:15;4.47;;;2.42;;
33268;SDS011;19640;50.944;5.260;2022-08-21T01:35:46;2.85;;;2.08;;
33268;SDS011;19640;50.944;5.260;2022-08-21T01:38:12;2.17;;;1.75;;
33268;SDS011;19640;50.944;5.260;2022-08-21T01:40:38;3.13;;;2.05;;
33268;SDS011;19640;50.944;5.260;2022-08-21T01:43:04;1.92;;;1.65;;
33268;SDS011;19640;50.944;5.260;2022-08-21T01:45:30;3.30;;;1.77;;
33268;SDS011;19640;50.944;5.260;2022-08-21T01:47:56;6.50;;;2.00;;
33268;SDS011;19640;50.944;5.260;2022-08-21T01:50:22;2.95;;;2.00;;
33268;SDS011;19640;50.944;5.260;2022-08-21T01:52:48;5.05;;;2.13;;
33268;SDS011;19640;50.944;5.260;2022-08-21T01:55:15;2.33;;;2.05;;
33268;SDS011;19640;50.944;5.260;2022-08-21T01:57:43;3.80;;;2.30;;
33268;SDS011;19640;50.944;5.260;2022-08-21T02:00:11;4.47;;;2.42;;
33268;SDS011;19640;50.944;5.260;2022-08-21T02:02:39;4.82;;;2.30;;
33268;SDS011;19640;50.944;5.260;2022-08-21T02:05:06;6.60;;;4.00;;
33268;SDS011;19640;50.944;5.260;2022-08-21T02:07:52;3.90;;;2.65;;
33268;SDS011;19640;50.944;5.260;2022-08-21T02:10:20;7.82;;;3.30;;
33268;SDS011;19640;50.944;5.260;2022-08-21T02:12:50;3.20;;;2.60;;
33268;SDS011;19640;50.944;5.260;2022-08-21T02:15:16;4.10;;;2.38;;
33268;SDS011;19640;50.944;5.260;2022-08-21T02:17:43;5.05;;;2.22;;
33268;SDS011;19640;50.944;5.260;2022-08-21T02:20:14;5.15;;;2.10;;
33268;SDS011;19640;50.944;5.260;2022-08-21T02:22:50;1.90;;;1.60;;
33268;SDS011;19640;50.944;5.260;2022-08-21T02:25:17;2.50;;;2.17;;
33268;SDS011;19640;50.944;5.260;2022-08-21T02:27:44;6.35;;;2.65;;
33268;SDS011;19640;50.944;5.260;2022-08-21T02:30:17;6.32;;;2.33;;
33268;SDS011;19640;50.944;5.260;2022-08-21T02:32:44;3.25;;;2.00;;
33268;SDS011;19640;50.944;5.260;2022-08-21T02:35:10;2.50;;;1.67;;
33268;SDS011;19640;50.944;5.260;2022-08-21T02:37:58;3.67;;;1.83;;
33268;SDS011;19640;50.944;5.260;2022-08-21T02:40:26;2.92;;;1.75;;
33268;SDS011;19640;50.944;5.260;2022-08-21T02:42:54;4.47;;;2.00;;
33268;SDS011;19640;50.944;5.260;2022-08-21T02:45:19;3.10;;;1.80;;
33268;SDS011;19640;50.944;5.260;2022-08-21T02:47:49;3.38;;;2.05;;
33268;SDS011;19640;50.944;5.260;2022-08-21T02:50:27;4.55;;;2.28;;
33268;SDS011;19640;50.944;5.260;2022-08-21T02:52:54;4.32;;;2.25;;
33268;SDS011;19640;50.944;5.260;2022-08-21T02:55:21;5.03;;;1.77;;
33268;SDS011;19640;50.944;5.260;2022-08-21T02:57:48;4.50;;;1.70;;
33268;SDS011;19640;50.944;5.260;2022-08-21T03:00:15;3.22;;;1.98;;
33268;SDS011;19640;50.944;5.260;2022-08-21T03:02:41;2.65;;;1.98;;
33268;SDS011;19640;50.944;5.260;2022-08-21T03:05:08;6.20;;;2.08;;
33268;SDS011;19640;50.944;5.260;2022-08-21T03:07:35;2.67;;;1.98;;
33268;SDS011;19640;50.944;5.260;2022-08-21T03:10:02;2.80;;;1.60;;
33268;SDS011;19640;50.944;5.260;2022-08-21T03:12:29;3.38;;;2.50;;
33268;SDS011;19640;50.944;5.260;2022-08-21T03:14:54;3.33;;;2.22;;
33268;SDS011;19640;50.944;5.260;2022-08-21T03:17:20;3.60;;;2.10;;
33268;SDS011;19640;50.944;5.260;2022-08-21T03:19:46;4.50;;;2.70;;
33268;SDS011;19640;50.944;5.260;2022-08-21T03:22:11;6.38;;;2.25;;
33268;SDS011;19640;50.944;5.260;2022-08-21T03:24:37;2.92;;;2.38;;
33268;SDS011;19640;50.944;5.260;2022-08-21T03:27:03;4.85;;;2.30;;
33268;SDS011;19640;50.944;5.260;2022-08-21T03:29:28;5.03;;;2.60;;
33268;SDS011;19640;50.944;5.260;2022-08-21T03:31:54;6.38;;;2.90;;
33268;SDS011;19640;50.944;5.260;2022-08-21T03:34:20;2.50;;;2.20;;
33268;SDS011;19640;50.944;5.260;2022-08-21T03:36:49;5.95;;;2.65;;
33268;SDS011;19640;50.944;5.260;2022-08-21T03:39:15;4.38;;;2.50;;
33268;SDS011;19640;50.944;5.260;2022-08-21T03:41:43;3.40;;;2.20;;
33268;SDS011;19640;50.944;5.260;2022-08-21T03:44:08;5.40;;;2.03;;
33268;SDS011;19640;50.944;5.260;2022-08-21T03:46:34;2.45;;;1.95;;
33268;SDS011;19640;50.944;5.260;2022-08-21T03:49:00;5.32;;;2.13;;
33268;SDS011;19640;50.944;5.260;2022-08-21T03:51:25;3.22;;;2.28;;
33268;SDS011;19640;50.944;5.260;2022-08-21T03:53:51;2.97;;;1.85;;
33268;SDS011;19640;50.944;5.260;2022-08-21T03:56:17;4.05;;;2.50;;
33268;SDS011;19640;50.944;5.260;2022-08-21T03:58:43;4.95;;;2.83;;
33268;SDS011;19640;50.944;5.260;2022-08-21T04:01:09;5.68;;;2.70;;
33268;SDS011;19640;50.944;5.260;2022-08-21T04:03:36;5.80;;;2.88;;
33268;SDS011;19640;50.944;5.260;2022-08-21T04:06:02;2.67;;;2.25;;
33268;SDS011;19640;50.944;5.260;2022-08-21T04:08:28;4.82;;;2.72;;
33268;SDS011;19640;50.944;5.260;2022-08-21T04:10:55;3.63;;;2.80;;
33268;SDS011;19640;50.944;5.260;2022-08-21T04:13:23;4.75;;;2.90;;
33268;SDS011;19640;50.944;5.260;2022-08-21T04:15:51;3.40;;;2.88;;
33268;SDS011;19640;50.944;5.260;2022-08-21T04:18:17;4.72;;;3.20;;
33268;SDS011;19640;50.944;5.260;2022-08-21T04:20:43;6.68;;;3.05;;
33268;SDS011;19640;50.944;5.260;2022-08-21T04:23:09;6.10;;;3.15;;
33268;SDS011;19640;50.944;5.260;2022-08-21T04:25:35;3.50;;;2.97;;
33268;SDS011;19640;50.944;5.260;2022-08-21T04:28:01;4.05;;;2.78;;
33268;SDS011;19640;50.944;5.260;2022-08-21T04:30:28;6.03;;;2.70;;
33268;SDS011;19640;50.944;5.260;2022-08-21T04:32:53;5.43;;;2.63;;
33268;SDS011;19640;50.944;5.260;2022-08-21T04:35:21;4.93;;;3.00;;
33268;SDS011;19640;50.944;5.260;2022-08-21T04:37:47;6.78;;;3.10;;
33268;SDS011;19640;50.944;5.260;2022-08-21T04:40:14;3.30;;;2.53;;
33268;SDS011;19640;50.944;5.260;2022-08-21T04:42:43;3.22;;;2.50;;
33268;SDS011;19640;50.944;5.260;2022-08-21T04:45:38;3.80;;;2.75;;
33268;SDS011;19640;50.944;5.260;2022-08-21T04:48:08;3.50;;;2.78;;
33268;SDS011;19640;50.944;5.260;2022-08-21T04:50:37;6.50;;;2.40;;
33268;SDS011;19640;50.944;5.260;2022-08-21T04:53:11;5.07;;;2.60;;
33268;SDS011;19640;50.944;5.260;2022-08-21T04:55:44;4.43;;;2.60;;
33268;SDS011;19640;50.944;5.260;2022-08-21T04:58:12;2.42;;;2.22;;
33268;SDS011;19640;50.944;5.260;2022-08-21T05:00:39;6.63;;;2.60;;
33268;SDS011;19640;50.944;5.260;2022-08-21T05:03:06;4.68;;;2.40;;
33268;SDS011;19640;50.944;5.260;2022-08-21T05:05:34;2.80;;;2.20;;
33268;SDS011;19640;50.944;5.260;2022-08-21T05:08:01;2.75;;;1.85;;
33268;SDS011;19640;50.944;5.260;2022-08-21T05:10:27;3.88;;;1.95;;
33268;SDS011;19640;50.944;5.260;2022-08-21T05:12:53;2.30;;;1.75;;
33268;SDS011;19640;50.944;5.260;2022-08-21T05:15:19;6.45;;;2.25;;
33268;SDS011;19640;50.944;5.260;2022-08-21T05:17:45;6.63;;;2.45;;
33268;SDS011;19640;50.944;5.260;2022-08-21T05:20:11;4.45;;;2.30;;
33268;SDS011;19640;50.944;5.260;2022-08-21T05:22:38;3.90;;;1.92;;
33268;SDS011;19640;50.944;5.260;2022-08-21T05:25:05;9.07;;;2.60;;
33268;SDS011;19640;50.944;5.260;2022-08-21T05:27:31;3.33;;;2.28;;
33268;SDS011;19640;50.944;5.260;2022-08-21T05:29:57;7.88;;;2.28;;
33268;SDS011;19640;50.944;5.260;2022-08-21T05:32:23;3.90;;;2.53;;
33268;SDS011;19640;50.944;5.260;2022-08-21T05:34:49;5.53;;;2.75;;
33268;SDS011;19640;50.944;5.260;2022-08-21T05:37:15;3.85;;;2.42;;
33268;SDS011;19640;50.944;5.260;2022-08-21T05:39:41;8.38;;;2.40;;
33268;SDS011;19640;50.944;5.260;2022-08-21T05:42:07;2.70;;;2.20;;
33268;SDS011;19640;50.944;5.260;2022-08-21T05:44:32;4.38;;;2.03;;
33268;SDS011;19640;50.944;5.260;2022-08-21T05:47:05;10.45;;;2.90;;
33268;SDS011;19640;50.944;5.260;2022-08-21T05:49:33;5.75;;;2.33;;
33268;SDS011;19640;50.944;5.260;2022-08-21T05:51:59;5.55;;;2.10;;
33268;SDS011;19640;50.944;5.260;2022-08-21T05:54:25;6.65;;;3.15;;
33268;SDS011;19640;50.944;5.260;2022-08-21T05:56:51;7.90;;;3.15;;
33268;SDS011;19640;50.944;5.260;2022-08-21T05:59:16;3.22;;;2.92;;
33268;SDS011;19640;50.944;5.260;2022-08-21T06:01:43;9.60;;;3.20;;
33268;SDS011;19640;50.944;5.260;2022-08-21T06:04:10;4.07;;;2.90;;
33268;SDS011;19640;50.944;5.260;2022-08-21T06:06:36;8.02;;;3.10;;
33268;SDS011;19640;50.944;5.260;2022-08-21T06:09:03;7.60;;;3.10;;
33268;SDS011;19640;50.944;5.260;2022-08-21T06:11:30;8.38;;;3.17;;
33268;SDS011;19640;50.944;5.260;2022-08-21T06:13:57;6.72;;;3.05;;
33268;SDS011;19640;50.944;5.260;2022-08-21T06:16:23;8.32;;;2.95;;
33268;SDS011;19640;50.944;5.260;2022-08-21T06:18:50;7.88;;;3.33;;
33268;SDS011;19640;50.944;5.260;2022-08-21T06:21:16;7.75;;;3.33;;
33268;SDS011;19640;50.944;5.260;2022-08-21T06:23:42;5.13;;;2.65;;
33268;SDS011;19640;50.944;5.260;2022-08-21T06:26:08;8.38;;;2.90;;
33268;SDS011;19640;50.944;5.260;2022-08-21T06:28:35;6.10;;;2.42;;
33268;SDS011;19640;50.944;5.260;2022-08-21T06:31:09;7.65;;;2.58;;
33268;SDS011;19640;50.944;5.260;2022-08-21T06:33:45;6.13;;;2.45;;
33268;SDS011;19640;50.944;5.260;2022-08-21T06:36:12;5.60;;;2.42;;
33268;SDS011;19640;50.944;5.260;2022-08-21T06:38:38;9.27;;;2.70;;
33268;SDS011;19640;50.944;5.260;2022-08-21T06:41:05;6.78;;;2.80;;
33268;SDS011;19640;50.944;5.260;2022-08-21T06:43:31;6.35;;;2.60;;
33268;SDS011;19640;50.944;5.260;2022-08-21T06:45:56;5.78;;;2.47;;
33268;SDS011;19640;50.944;5.260;2022-08-21T06:48:22;7.53;;;2.63;;
33268;SDS011;19640;50.944;5.260;2022-08-21T06:50:48;4.60;;;2.65;;
33268;SDS011;19640;50.944;5.260;2022-08-21T06:53:15;8.40;;;2.60;;
33268;SDS011;19640;50.944;5.260;2022-08-21T06:55:43;6.80;;;2.30;;
33268;SDS011;19640;50.944;5.260;2022-08-21T06:58:09;9.45;;;2.53;;
33268;SDS011;19640;50.944;5.260;2022-08-21T07:00:35;7.78;;;2.30;;
33268;SDS011;19640;50.944;5.260;2022-08-21T07:03:05;7.13;;;3.45;;
33268;SDS011;19640;50.944;5.260;2022-08-21T07:05:30;5.55;;;2.13;;
33268;SDS011;19640;50.944;5.260;2022-08-21T07:07:57;5.03;;;2.00;;
33268;SDS011;19640;50.944;5.260;2022-08-21T07:10:26;10.10;;;1.90;;
33268;SDS011;19640;50.944;5.260;2022-08-21T07:12:53;3.13;;;1.40;;
33268;SDS011;19640;50.944;5.260;2022-08-21T07:15:19;3.50;;;1.15;;
33268;SDS011;19640;50.944;5.260;2022-08-21T07:17:45;5.53;;;1.58;;
33268;SDS011;19640;50.944;5.260;2022-08-21T07:20:11;4.68;;;1.13;;
33268;SDS011;19640;50.944;5.260;2022-08-21T07:22:38;4.90;;;1.30;;
33268;SDS011;19640;50.944;5.260;2022-08-21T07:25:05;4.80;;;1.42;;
33268;SDS011;19640;50.944;5.260;2022-08-21T07:27:31;4.65;;;1.38;;
33268;SDS011;19640;50.944;5.260;2022-08-21T07:29:57;5.60;;;1.50;;
33268;SDS011;19640;50.944;5.260;2022-08-21T07:32:23;4.45;;;1.20;;
33268;SDS011;19640;50.944;5.260;2022-08-21T07:34:49;3.72;;;1.27;;
33268;SDS011;19640;50.944;5.260;2022-08-21T07:37:15;5.10;;;1.35;;
33268;SDS011;19640;50.944;5.260;2022-08-21T07:39:40;4.07;;;1.30;;
33268;SDS011;19640;50.944;5.260;2022-08-21T07:42:06;5.05;;;1.30;;
33268;SDS011;19640;50.944;5.260;2022-08-21T07:44:32;5.15;;;1.40;;
33268;SDS011;19640;50.944;5.260;2022-08-21T07:46:59;4.82;;;1.30;;
33268;SDS011;19640;50.944;5.260;2022-08-21T07:49:26;4.95;;;1.40;;
33268;SDS011;19640;50.944;5.260;2022-08-21T07:51:51;6.03;;;1.20;;
33268;SDS011;19640;50.944;5.260;2022-08-21T07:54:17;6.88;;;1.48;;
33268;SDS011;19640;50.944;5.260;2022-08-21T07:56:43;5.43;;;1.27;;
33268;SDS011;19640;50.944;5.260;2022-08-21T07:59:08;5.68;;;1.20;;
33268;SDS011;19640;50.944;5.260;2022-08-21T08:01:34;3.42;;;1.10;;
33268;SDS011;19640;50.944;5.260;2022-08-21T08:03:59;4.07;;;1.20;;
33268;SDS011;19640;50.944;5.260;2022-08-21T08:06:25;4.20;;;1.20;;
33268;SDS011;19640;50.944;5.260;2022-08-21T08:08:51;5.22;;;1.10;;
33268;SDS011;19640;50.944;5.260;2022-08-21T08:11:17;4.47;;;1.13;;
33268;SDS011;19640;50.944;5.260;2022-08-21T08:13:44;3.60;;;1.00;;
33268;SDS011;19640;50.944;5.260;2022-08-21T08:16:11;8.13;;;1.58;;
33268;SDS011;19640;50.944;5.260;2022-08-21T08:18:37;3.63;;;1.10;;
33268;SDS011;19640;50.944;5.260;2022-08-21T08:21:03;5.18;;;1.40;;
33268;SDS011;19640;50.944;5.260;2022-08-21T08:23:29;5.72;;;1.85;;
33268;SDS011;19640;50.944;5.260;2022-08-21T08:25:55;4.82;;;1.10;;
33268;SDS011;19640;50.944;5.260;2022-08-21T08:28:21;3.88;;;1.15;;
33268;SDS011;19640;50.944;5.260;2022-08-21T08:30:47;3.78;;;0.80;;
33268;SDS011;19640;50.944;5.260;2022-08-21T08:33:14;6.40;;;0.98;;
33268;SDS011;19640;50.944;5.260;2022-08-21T08:35:44;4.55;;;1.48;;
33268;SDS011;19640;50.944;5.260;2022-08-21T08:38:12;2.97;;;1.05;;
33268;SDS011;19640;50.944;5.260;2022-08-21T08:40:52;4.03;;;1.10;;
33268;SDS011;19640;50.944;5.260;2022-08-21T08:43:28;2.28;;;0.73;;
33268;SDS011;19640;50.944;5.260;2022-08-21T08:45:57;3.88;;;1.08;;
33268;SDS011;19640;50.944;5.260;2022-08-21T08:48:39;5.15;;;1.15;;
33268;SDS011;19640;50.944;5.260;2022-08-21T08:51:26;7.63;;;0.90;;
33268;SDS011;19640;50.944;5.260;2022-08-21T08:54:06;4.05;;;0.88;;
33268;SDS011;19640;50.944;5.260;2022-08-21T08:56:36;2.72;;;0.65;;
33268;SDS011;19640;50.944;5.260;2022-08-21T09:02:04;4.10;;;0.82;;
33268;SDS011;19640;50.944;5.260;2022-08-21T09:04:30;6.43;;;1.00;;
33268;SDS011;19640;50.944;5.260;2022-08-21T09:07:01;3.38;;;1.27;;
33268;SDS011;19640;50.944;5.260;2022-08-21T09:12:09;3.65;;;0.70;;
33268;SDS011;19640;50.944;5.260;2022-08-21T09:17:19;2.95;;;0.77;;
33268;SDS011;19640;50.944;5.260;2022-08-21T09:20:02;4.22;;;0.60;;
33268;SDS011;19640;50.944;5.260;2022-08-21T09:26:06;2.78;;;0.70;;
33268;SDS011;19640;50.944;5.260;2022-08-21T09:28:38;3.47;;;0.70;;
33268;SDS011;19640;50.944;5.260;2022-08-21T09:31:09;4.60;;;0.80;;
33268;SDS011;19640;50.944;5.260;2022-08-21T09:33:45;4.53;;;0.82;;
33268;SDS011;19640;50.944;5.260;2022-08-21T09:36:11;6.88;;;0.80;;
33268;SDS011;19640;50.944;5.260;2022-08-21T09:38:37;7.05;;;0.70;;
33268;SDS011;19640;50.944;5.260;2022-08-21T09:41:07;3.38;;;0.60;;
33268;SDS011;19640;50.944;5.260;2022-08-21T09:43:34;2.88;;;0.65;;
33268;SDS011;19640;50.944;5.260;2022-08-21T09:46:11;3.65;;;0.70;;
33268;SDS011;19640;50.944;5.260;2022-08-21T09:48:47;4.18;;;0.95;;
33268;SDS011;19640;50.944;5.260;2022-08-21T09:51:39;3.40;;;0.50;;
33268;SDS011;19640;50.944;5.260;2022-08-21T09:54:16;2.15;;;0.82;;
33268;SDS011;19640;50.944;5.260;2022-08-21T09:59:41;1.83;;;0.57;;
33268;SDS011;19640;50.944;5.260;2022-08-21T10:02:25;2.95;;;0.60;;
33268;SDS011;19640;50.944;5.260;2022-08-21T10:05:00;1.35;;;0.63;;
33268;SDS011;19640;50.944;5.260;2022-08-21T10:07:35;1.83;;;0.68;;
33268;SDS011;19640;50.944;5.260;2022-08-21T10:23:56;6.43;;;1.17;;
33268;SDS011;19640;50.944;5.260;2022-08-21T10:26:52;5.47;;;0.90;;
33268;SDS011;19640;50.944;5.260;2022-08-21T10:29:51;7.70;;;0.75;;
33268;SDS011;19640;50.944;5.260;2022-08-21T10:32:43;4.43;;;0.90;;
33268;SDS011;19640;50.944;5.260;2022-08-21T10:35:28;4.95;;;0.88;;
33268;SDS011;19640;50.944;5.260;2022-08-21T10:38:03;4.47;;;0.85;;
33268;SDS011;19640;50.944;5.260;2022-08-21T10:43:28;5.30;;;1.00;;
33268;SDS011;19640;50.944;5.260;2022-08-21T10:46:29;4.53;;;1.30;;
33268;SDS011;19640;50.944;5.260;2022-08-21T10:51:48;3.03;;;0.88;;
33268;SDS011;19640;50.944;5.260;2022-08-21T10:56:59;9.35;;;1.27;;
33268;SDS011;19640;50.944;5.260;2022-08-21T11:00:04;9.15;;;0.93;;
33268;SDS011;19640;50.944;5.260;2022-08-21T11:02:32;3.38;;;0.93;;
33268;SDS011;19640;50.944;5.260;2022-08-21T11:05:08;5.68;;;1.17;;
33268;SDS011;19640;50.944;5.260;2022-08-21T11:07:42;3.70;;;1.13;;
33268;SDS011;19640;50.944;5.260;2022-08-21T11:13:04;5.53;;;1.02;;
33268;SDS011;19640;50.944;5.260;2022-08-21T11:18:47;6.15;;;1.25;;
33268;SDS011;19640;50.944;5.260;2022-08-21T11:21:39;3.15;;;0.90;;
33268;SDS011;19640;50.944;5.260;2022-08-21T11:29:33;3.97;;;1.00;;
33268;SDS011;19640;50.944;5.260;2022-08-21T11:32:08;5.15;;;1.00;;
33268;SDS011;19640;50.944;5.260;2022-08-21T11:43:20;4.18;;;1.10;;
33268;SDS011;19640;50.944;5.260;2022-08-21T11:51:11;5.50;;;0.90;;
33268;SDS011;19640;50.944;5.260;2022-08-21T11:58:45;3.67;;;1.00;;
33268;SDS011;19640;50.944;5.260;2022-08-21T12:01:22;3.70;;;1.10;;
33268;SDS011;19640;50.944;5.260;2022-08-21T12:04:04;3.88;;;1.05;;
33268;SDS011;19640;50.944;5.260;2022-08-21T12:06:41;6.75;;;1.10;;
33268;SDS011;19640;50.944;5.260;2022-08-21T12:09:24;5.60;;;1.20;;
33268;SDS011;19640;50.944;5.260;2022-08-21T12:17:06;3.47;;;1.05;;
33268;SDS011;19640;50.944;5.260;2022-08-21T12:19:33;7.13;;;1.00;;
33268;SDS011;19640;50.944;5.260;2022-08-21T12:24:47;4.55;;;1.20;;
33268;SDS011;19640;50.944;5.260;2022-08-21T12:27:27;4.78;;;1.05;;
33268;SDS011;19640;50.944;5.260;2022-08-21T12:29:56;4.68;;;1.00;;
33268;SDS011;19640;50.944;5.260;2022-08-21T12:32:30;6.75;;;1.38;;
33268;SDS011;19640;50.944;5.260;2022-08-21T12:35:15;5.18;;;1.13;;
33268;SDS011;19640;50.944;5.260;2022-08-21T12:37:44;6.47;;;1.10;;
33268;SDS011;19640;50.944;5.260;2022-08-21T12:42:59;5.63;;;1.65;;
33268;SDS011;19640;50.944;5.260;2022-08-21T12:47:56;3.83;;;0.75;;
33268;SDS011;19640;50.944;5.260;2022-08-21T12:50:26;4.13;;;0.93;;
33268;SDS011;19640;50.944;5.260;2022-08-21T12:53:10;5.63;;;1.58;;
33268;SDS011;19640;50.944;5.260;2022-08-21T12:55:47;3.45;;;1.20;;
33268;SDS011;19640;50.944;5.260;2022-08-21T12:58:19;4.38;;;1.25;;
33268;SDS011;19640;50.944;5.260;2022-08-21T13:00:55;5.00;;;0.90;;
33268;SDS011;19640;50.944;5.260;2022-08-21T13:03:24;4.35;;;1.00;;
33268;SDS011;19640;50.944;5.260;2022-08-21T13:05:51;5.28;;;1.17;;
33268;SDS011;19640;50.944;5.260;2022-08-21T13:08:18;7.10;;;1.02;;
33268;SDS011;19640;50.944;5.260;2022-08-21T13:10:45;8.48;;;1.10;;
33268;SDS011;19640;50.944;5.260;2022-08-21T13:13:17;5.40;;;1.05;;
33268;SDS011;19640;50.944;5.260;2022-08-21T13:18:19;4.18;;;0.90;;
33268;SDS011;19640;50.944;5.260;2022-08-21T13:20:47;4.57;;;0.90;;
33268;SDS011;19640;50.944;5.260;2022-08-21T13:23:22;4.93;;;0.93;;
33268;SDS011;19640;50.944;5.260;2022-08-21T13:25:50;4.20;;;1.00;;
33268;SDS011;19640;50.944;5.260;2022-08-21T13:28:16;5.78;;;1.23;;
33268;SDS011;19640;50.944;5.260;2022-08-21T13:30:43;3.35;;;0.80;;
33268;SDS011;19640;50.944;5.260;2022-08-21T13:33:12;7.68;;;0.95;;
33268;SDS011;19640;50.944;5.260;2022-08-21T13:35:47;4.28;;;0.80;;
33268;SDS011;19640;50.944;5.260;2022-08-21T13:38:16;5.07;;;1.25;;
33268;SDS011;19640;50.944;5.260;2022-08-21T13:40:46;6.30;;;1.40;;
33268;SDS011;19640;50.944;5.260;2022-08-21T13:45:48;6.80;;;1.20;;
33268;SDS011;19640;50.944;5.260;2022-08-21T13:48:18;2.88;;;0.88;;
33268;SDS011;19640;50.944;5.260;2022-08-21T13:50:46;4.25;;;0.85;;
33268;SDS011;19640;50.944;5.260;2022-08-21T13:55:57;4.75;;;1.10;;
33268;SDS011;19640;50.944;5.260;2022-08-21T13:58:30;4.90;;;1.10;;
33268;SDS011;19640;50.944;5.260;2022-08-21T14:00:56;4.18;;;0.80;;
33268;SDS011;19640;50.944;5.260;2022-08-21T14:03:38;6.93;;;1.02;;
33268;SDS011;19640;50.944;5.260;2022-08-21T14:06:18;4.22;;;1.02;;
33268;SDS011;19640;50.944;5.260;2022-08-21T14:08:51;4.38;;;0.90;;
33268;SDS011;19640;50.944;5.260;2022-08-21T14:11:23;5.70;;;1.25;;
33268;SDS011;19640;50.944;5.260;2022-08-21T14:13:56;2.05;;;0.90;;
33268;SDS011;19640;50.944;5.260;2022-08-21T14:16:25;10.40;;;1.60;;
33268;SDS011;19640;50.944;5.260;2022-08-21T14:19:10;4.45;;;1.00;;
33268;SDS011;19640;50.944;5.260;2022-08-21T14:21:42;3.35;;;0.93;;
33268;SDS011;19640;50.944;5.260;2022-08-21T14:24:25;3.72;;;1.20;;
33268;SDS011;19640;50.944;5.260;2022-08-21T14:26:58;4.50;;;1.00;;
33268;SDS011;19640;50.944;5.260;2022-08-21T14:29:35;4.03;;;0.93;;
33268;SDS011;19640;50.944;5.260;2022-08-21T14:32:22;4.07;;;0.93;;
33268;SDS011;19640;50.944;5.260;2022-08-21T14:34:56;4.45;;;1.10;;
33268;SDS011;19640;50.944;5.260;2022-08-21T14:37:23;5.13;;;0.98;;
33268;SDS011;19640;50.944;5.260;2022-08-21T14:39:49;5.43;;;1.05;;
33268;SDS011;19640;50.944;5.260;2022-08-21T14:42:15;6.55;;;1.45;;
33268;SDS011;19640;50.944;5.260;2022-08-21T14:44:41;5.45;;;1.38;;
33268;SDS011;19640;50.944;5.260;2022-08-21T14:47:07;4.63;;;1.05;;
33268;SDS011;19640;50.944;5.260;2022-08-21T14:49:33;5.70;;;1.52;;
33268;SDS011;19640;50.944;5.260;2022-08-21T14:51:59;3.03;;;0.77;;
33268;SDS011;19640;50.944;5.260;2022-08-21T14:54:26;4.47;;;1.02;;
33268;SDS011;19640;50.944;5.260;2022-08-21T14:56:53;8.95;;;1.33;;
33268;SDS011;19640;50.944;5.260;2022-08-21T14:59:20;5.30;;;1.10;;
33268;SDS011;19640;50.944;5.260;2022-08-21T15:01:46;5.43;;;0.93;;
33268;SDS011;19640;50.944;5.260;2022-08-21T15:04:12;3.70;;;0.90;;
33268;SDS011;19640;50.944;5.260;2022-08-21T15:06:38;3.95;;;1.10;;
33268;SDS011;19640;50.944;5.260;2022-08-21T15:09:03;16.30;;;1.33;;
33268;SDS011;19640;50.944;5.260;2022-08-21T15:11:30;4.22;;;0.60;;
33268;SDS011;19640;50.944;5.260;2022-08-21T15:13:59;5.00;;;1.08;;
33268;SDS011;19640;50.944;5.260;2022-08-21T15:16:27;3.00;;;0.93;;
33268;SDS011;19640;50.944;5.260;2022-08-21T15:18:55;2.53;;;0.80;;
33268;SDS011;19640;50.944;5.260;2022-08-21T15:21:21;3.97;;;1.55;;
33268;SDS011;19640;50.944;5.260;2022-08-21T15:23:47;3.70;;;0.90;;
33268;SDS011;19640;50.944;5.260;2022-08-21T15:26:12;3.55;;;0.93;;
33268;SDS011;19640;50.944;5.260;2022-08-21T15:28:38;6.22;;;1.30;;
33268;SDS011;19640;50.944;5.260;2022-08-21T15:31:05;4.32;;;1.15;;
33268;SDS011;19640;50.944;5.260;2022-08-21T15:33:30;3.17;;;1.08;;
33268;SDS011;19640;50.944;5.260;2022-08-21T15:35:56;5.57;;;1.00;;
33268;SDS011;19640;50.944;5.260;2022-08-21T15:38:22;3.90;;;0.90;;
33268;SDS011;19640;50.944;5.260;2022-08-21T15:40:48;6.47;;;0.82;;
33268;SDS011;19640;50.944;5.260;2022-08-21T15:43:22;6.22;;;1.20;;
33268;SDS011;19640;50.944;5.260;2022-08-21T15:45:52;5.38;;;1.00;;
33268;SDS011;19640;50.944;5.260;2022-08-21T15:48:17;4.90;;;1.38;;
33268;SDS011;19640;50.944;5.260;2022-08-21T15:50:43;10.38;;;1.35;;
33268;SDS011;19640;50.944;5.260;2022-08-21T15:53:09;4.68;;;0.95;;
33268;SDS011;19640;50.944;5.260;2022-08-21T15:55:35;7.00;;;1.10;;
33268;SDS011;19640;50.944;5.260;2022-08-21T15:58:01;6.70;;;0.93;;
33268;SDS011;19640;50.944;5.260;2022-08-21T16:00:29;4.28;;;1.27;;
33268;SDS011;19640;50.944;5.260;2022-08-21T16:02:58;3.85;;;0.98;;
33268;SDS011;19640;50.944;5.260;2022-08-21T16:05:25;3.17;;;0.90;;
33268;SDS011;19640;50.944;5.260;2022-08-21T16:07:51;5.88;;;1.30;;
33268;SDS011;19640;50.944;5.260;2022-08-21T16:10:18;6.05;;;0.95;;
33268;SDS011;19640;50.944;5.260;2022-08-21T16:12:49;5.25;;;1.63;;
33268;SDS011;19640;50.944;5.260;2022-08-21T16:15:17;5.00;;;1.20;;
33268;SDS011;19640;50.944;5.260;2022-08-21T16:17:44;3.97;;;1.10;;
33268;SDS011;19640;50.944;5.260;2022-08-21T16:20:15;4.68;;;1.05;;
33268;SDS011;19640;50.944;5.260;2022-08-21T16:22:46;9.70;;;1.35;;
33268;SDS011;19640;50.944;5.260;2022-08-21T16:25:12;6.22;;;1.67;;
33268;SDS011;19640;50.944;5.260;2022-08-21T16:27:38;5.97;;;1.50;;
33268;SDS011;19640;50.944;5.260;2022-08-21T16:30:06;4.40;;;1.00;;
33268;SDS011;19640;50.944;5.260;2022-08-21T16:32:32;8.77;;;1.20;;